Latest Weather Observations for Cape Byron

IDN60801

Issued at 12:32 am EDT Sunday 4 December 2016 (issued every 30 minutes, with the page automatically refreshed every 10 minutes)

About weather observations | Map of weather stations | Latest weather observations for NSW | Other Formats
Station Details ID: 058216 Name: CAPE BYRON AWS Lat: -28.64 Lon: 153.64 Height: 95.0 m
Data from the previous 72 hours. | See also: Recent months at Cape Byron
Date/Time
EDT
Temp
°C
App
Temp
°C
Dew
Point
°C
Rel
Hum
%
Delta-T
°C
Wind Press
QNH
hPa
Press
MSL
hPa
Rain since
9am
mm
Dir  Spd
km/h
Gust
km/h
Spd
kts
Gust
kts
04/12:30am 21.5 19.7 17.9 80 2.2 WSW 24 33 13 18 1015.4 1015.0 2.8
04/12:00am 22.1 23.2 18.9 82 2.0 NNW 11 24 6 13 1014.7 1014.3 2.8
 
Date/Time
EDT
Temp
°C
App
Temp
°C
Dew
Point
°C
Rel
Hum
%
Delta-T
°C
Wind Press
QNH
hPa
Press
MSL
hPa
Rain since
9am
mm
Dir  Spd
km/h
Gust
km/h
Spd
kts
Gust
kts
03/11:30pm 21.5 22.8 19.2 87 1.5 NE 11 17 6 9 1014.6 1014.2 2.8
03/11:00pm 21.1 22.1 20.3 95 0.5 NNE 15 28 8 15 1014.4 1014.0 2.8
03/10:30pm 21.6 22.8 20.6 94 0.6 NNW 15 28 8 15 1014.2 1013.8 2.8
03/10:11pm 22.2 20.0 20.7 91 1.0 N 33 52 18 28 1013.9 1013.5 2.8
03/10:00pm 22.4 19.2 21.0 92 0.9 NNE 39 56 21 30 1013.5 1013.1 2.8
03/09:57pm 22.1 19.6 20.9 93 0.8 NNE 35 56 19 30 1013.3 1012.9 2.8
03/09:51pm 21.6 21.5 20.8 95 0.5 N 22 46 12 25 1015.3 1014.9 2.8
03/09:49pm 21.5 22.4 20.8 96 0.5 NNW 17 37 9 20 1016.0 1015.6 2.8
03/09:30pm 21.6 22.7 21.3 98 0.2 WNW 17 28 9 15 1018.1 1017.6 2.6
03/09:00pm 21.4 23.8 20.9 97 0.3 N 9 24 5 13 1017.0 1016.5 2.2
03/08:56pm 21.3 24.1 20.8 97 0.3 NW 7 13 4 7 1016.7 1016.2 2.2
03/08:30pm 21.4 20.2 20.9 97 0.3 N 28 39 15 21 1014.6 1014.2 2.2
03/08:00pm 21.7 22.4 21.2 97 0.3 NNW 19 28 10 15 1016.0 1015.6 2.2
03/07:51pm 21.9 20.2 21.4 97 0.3 NNE 32 46 17 25 1015.5 1015.1 2.2
03/07:30pm 21.9 20.0 21.4 97 0.3 ENE 33 46 18 25 1013.5 1013.1 2.2
03/07:17pm 21.8 20.4 21.1 96 0.5 E 30 43 16 23 1014.9 1014.5 1.8
03/07:00pm 22.7 22.5 22.0 96 0.5 S 26 35 14 19 1017.2 1016.7 1.2
03/06:30pm 22.2 23.4 21.4 95 0.5 NW 17 30 9 16 1017.0 1016.5 0.4
03/06:25pm 22.4 24.0 21.4 94 0.7 NE 15 24 8 13 1016.0 1015.6 0.4
03/06:00pm 22.2 22.9 21.2 94 0.7 NNW 19 30 10 16 1013.9 1013.5 0.0
03/05:30pm 22.5 20.9 21.5 94 0.7 NNE 32 46 17 25 1011.9 1011.5 0.0
03/05:28pm 22.5 21.6 21.5 94 0.7 NNE 28 46 15 25 1012.1 1011.7 0.0
03/05:00pm 22.6 22.2 21.6 94 0.7 N 26 35 14 19 1012.6 1012.2 0.0
03/04:30pm 22.9 22.4 21.5 92 0.9 N 26 37 14 20 1012.5 1012.1 0.0
03/04:00pm 22.9 22.1 21.7 93 0.8 N 28 44 15 24 1011.5 1011.1 0.0
03/03:30pm 22.8 19.1 21.6 93 0.8 NNE 43 61 23 33 1011.0 1010.5 0.0
03/03:10pm 23.2 21.1 21.6 91 1.1 NNE 35 54 19 29 1011.8 1011.4 0.0
03/03:00pm 23.5 21.0 21.6 89 1.3 NNE 37 50 20 27 1012.5 1012.1 0.0
03/02:35pm 24.2 21.7 21.7 86 1.7 NNE 37 56 20 30 1012.2 1011.8 0.0
03/02:30pm 24.5 21.7 21.8 85 1.8 NNE 39 52 21 28 1012.2 1011.8 0.0
03/02:00pm 24.6 21.8 21.7 84 1.9 NNE 39 54 21 29 1012.6 1012.2 0.0
03/01:30pm 24.8 21.7 21.9 84 1.9 NNE 41 56 22 30 1013.1 1012.7 0.0
03/01:00pm 24.8 22.4 21.9 84 1.9 NNE 37 54 20 29 1013.4 1013.0 0.0
03/12:42pm 24.8 22.9 22.1 85 1.8 NNE 35 54 19 29 1013.6 1013.2 0.0
03/12:30pm 24.8 22.6 22.1 85 1.8 NNE 37 50 20 27 1013.7 1013.3 0.0
03/12:00pm 24.8 23.9 22.1 85 1.8 NNE 30 46 16 25 1013.9 1013.5 0.0
03/11:30am 24.7 23.7 22.0 85 1.8 NNE 30 43 16 23 1014.3 1013.9 0.0
03/11:00am 24.6 23.3 22.1 86 1.7 N 32 43 17 23 1014.8 1014.4 0.0
03/10:30am 24.3 24.4 21.8 86 1.7 N 24 32 13 17 1015.3 1014.9 0.0
03/10:00am 23.1 23.4 21.5 91 1.1 N 22 32 12 17 1015.3 1014.9 0.0
03/09:30am 22.8 23.7 22.0 95 0.5 N 20 28 11 15 1015.1 1014.7 0.0
03/09:00am 22.3 23.4 22.0 98 0.2 N 19 26 10 14 1015.3 1014.9 0.0
03/08:30am 22.0 23.4 21.8 99 0.1 N 17 26 9 14 1015.2 1014.8 0.0
03/08:00am 21.6 22.4 21.4 99 0.1 N 19 28 10 15 1015.1 1014.7 0.0
03/07:30am 21.3 21.8 21.1 99 0.1 N 20 28 11 15 1014.7 1014.3 0.0
03/07:00am 21.6 21.5 21.4 99 0.1 N 24 32 13 17 1014.4 1014.0 0.0
03/06:30am 21.7 21.6 21.5 99 0.1 N 24 32 13 17 1014.4 1014.0 0.0
03/06:00am 22.1 21.5 21.9 99 0.1 N 28 37 15 20 1013.8 1013.4 0.0
03/05:30am 21.8 22.1 21.6 99 0.1 N 22 32 12 17 1013.5 1013.1 0.0
03/05:00am 21.4 21.9 21.2 99 0.1 N 20 28 11 15 1013.1 1012.7 0.0
03/04:30am 21.6 21.4 21.3 98 0.2 N 24 32 13 17 1012.6 1012.2 0.0
03/04:00am 21.9 21.9 21.6 98 0.2 N 24 33 13 18 1012.4 1012.0 0.0
03/03:30am 22.0 21.6 21.7 98 0.2 NNE 26 35 14 19 1012.4 1012.0 0.0
03/03:00am 22.1 21.1 21.9 99 0.1 N 30 39 16 21 1013.0 1012.6 0.0
03/02:30am 21.6 21.1 21.4 99 0.1 N 26 35 14 19 1013.2 1012.8 0.0
03/02:00am 21.5 20.5 21.3 99 0.1 N 28 35 15 19 1013.3 1012.9 0.0
03/01:30am 21.2 20.8 21.0 99 0.1 N 24 35 13 19 1013.4 1013.0 0.0
03/01:00am 21.3 20.6 21.0 98 0.2 N 26 37 14 20 1013.4 1013.0 0.0
03/12:30am 21.4 20.3 21.1 98 0.2 N 28 41 15 22 1013.4 1013.0 0.0
03/12:00am 21.4 20.3 21.1 98 0.2 N 28 39 15 21 1013.3 1012.9 0.0
 
Date/Time
EDT
Temp
°C
App
Temp
°C
Dew
Point
°C
Rel
Hum
%
Delta-T
°C
Wind Press
QNH
hPa
Press
MSL
hPa
Rain since
9am
mm
Dir  Spd
km/h
Gust
km/h
Spd
kts
Gust
kts
02/11:30pm 21.7 19.1 21.4 98 0.2 N 37 48 20 26 1013.2 1012.8 0.0
02/11:00pm 21.4 20.2 20.9 97 0.3 N 28 39 15 21 1013.3 1012.9 0.0
02/10:30pm 21.8 20.8 21.3 97 0.3 N 28 43 15 23 1013.0 1012.6 0.0
02/10:00pm 22.0 20.2 21.5 97 0.3 NNE 33 46 18 25 1012.6 1012.2 0.0
02/09:48pm 22.0 19.9 21.7 98 0.2 NNE 35 54 19 29 1012.3 1011.9 0.0
02/09:30pm 21.6 19.7 21.3 98 0.2 N 33 46 18 25 1012.5 1012.1 0.0
02/09:00pm 21.3 20.2 21.0 98 0.2 N 28 37 15 20 1012.6 1012.2 0.0
02/08:30pm 21.2 19.9 20.7 97 0.3 N 28 37 15 20 1011.9 1011.5 0.0
02/08:00pm 21.2 20.7 20.7 97 0.3 N 24 32 13 17 1011.6 1011.2 0.0
02/07:30pm 21.4 21.6 20.6 95 0.5 N 20 30 11 16 1011.3 1010.9 0.0
02/07:00pm 21.9 21.5 20.9 94 0.7 N 24 32 13 17 1011.1 1010.7 0.0
02/06:30pm 23.0 21.9 21.1 89 1.2 N 28 43 15 23 1010.5 1010.0 0.0
02/06:00pm 23.4 22.2 21.5 89 1.3 N 30 41 16 22 1010.1 1009.6 0.0
02/05:30pm 23.3 21.5 21.2 88 1.4 N 32 46 17 25 1009.9 1009.4 0.0
02/05:00pm 23.5 22.2 21.4 88 1.4 NNE 30 41 16 22 1009.7 1009.2 0.0
02/04:30pm 23.9 22.2 21.4 86 1.7 NNE 32 44 17 24 1009.7 1009.2 0.0
02/04:00pm 23.7 21.7 21.2 86 1.7 NNE 33 46 18 25 1009.5 1009.0 0.0
02/03:30pm 23.8 22.1 21.3 86 1.7 NNE 32 44 17 24 1009.8 1009.3 0.0
02/03:00pm 24.0 21.7 21.3 85 1.8 NNE 35 50 19 27 1009.9 1009.4 0.0
02/02:30pm 24.1 21.8 21.2 84 1.9 NNE 35 50 19 27 1009.9 1009.4 0.0
02/02:00pm 24.2 21.2 21.3 84 1.9 NNE 39 56 21 30 1010.0 1009.5 0.0
02/01:30pm 24.4 21.7 21.3 83 2.1 NNE 37 56 20 30 1010.0 1009.5 0.0
02/01:13pm 24.3 21.9 21.0 82 2.2 NNE 35 54 19 29 1010.1 1009.6 0.0
02/01:00pm 24.4 22.6 21.1 82 2.2 NNE 32 48 17 26 1010.4 1009.9 0.0
02/12:30pm 24.2 21.3 20.9 82 2.2 NNE 37 52 20 28 1010.6 1010.1 0.0
02/12:00pm 24.3 22.2 20.6 80 2.4 NNE 32 50 17 27 1011.0 1010.5 0.0
02/11:51am 24.3 22.2 20.6 80 2.4 NNE 32 50 17 27 1011.0 1010.5 0.0
02/11:30am 24.1 21.7 20.4 80 2.4 NNE 33 46 18 25 1011.2 1010.8 0.0
02/11:01am 23.9 21.3 20.0 79 2.5 NNE 33 52 18 28 1011.4 1011.0 0.0
02/11:00am 24.0 21.7 20.1 79 2.5 NNE 32 46 17 25 1011.4 1011.0 0.0
02/10:30am 23.6 21.8 20.3 82 2.1 NNE 30 43 16 23 1011.6 1011.2 0.0
02/10:04am 23.2 21.2 20.0 82 2.1 NNE 30 48 16 26 1011.8 1011.4 0.0
02/10:00am 23.2 21.3 20.2 83 1.9 NNE 30 43 16 23 1011.8 1011.4 0.0
02/09:30am 22.8 20.5 20.1 85 1.7 N 32 43 17 23 1011.8 1011.4 0.0
02/09:00am 22.4 20.4 19.9 86 1.6 NNE 30 41 16 22 1011.7 1011.3 0.6
02/08:30am 22.1 20.2 20.2 89 1.2 N 30 41 16 22 1011.8 1011.4 0.6
02/08:00am 21.8 20.3 20.3 91 1.0 N 28 39 15 21 1011.8 1011.4 0.6
02/07:30am 21.2 20.3 19.8 92 0.9 N 24 32 13 17 1011.6 1011.2 0.6
02/07:00am 20.6 19.9 19.4 93 0.8 N 22 33 12 18 1011.2 1010.8 0.6
02/06:30am 20.4 19.6 19.2 93 0.8 N 22 33 12 18 1010.8 1010.3 0.6
02/06:00am 20.3 19.0 19.0 92 0.8 N 24 33 13 18 1010.5 1010.0 0.6
02/05:30am 20.3 18.9 18.8 91 0.9 NNW 24 33 13 18 1010.2 1009.7 0.6
02/05:00am 20.2 18.3 19.4 95 0.5 N 28 41 15 22 1009.9 1009.4 0.6
02/04:30am 20.4 18.7 19.9 97 0.3 N 28 37 15 20 1009.7 1009.2 0.6
02/04:00am 20.6 19.0 20.1 97 0.3 N 28 39 15 21 1009.6 1009.1 0.6
02/03:30am 20.8 18.5 20.1 96 0.4 N 32 46 17 25 1009.4 1008.9 0.6
02/03:00am 20.6 18.9 19.9 96 0.4 N 28 37 15 20 1009.6 1009.1 0.6
02/02:30am 20.4 19.4 19.7 96 0.4 N 24 35 13 19 1009.7 1009.2 0.6
02/02:00am 20.6 18.9 19.9 96 0.4 N 28 39 15 21 1009.8 1009.3 0.6
02/01:30am 20.6 18.9 19.9 96 0.4 N 28 37 15 20 1010.0 1009.5 0.6
02/01:00am 20.7 19.5 20.0 96 0.4 N 26 35 14 19 1010.3 1009.8 0.6
02/12:30am 20.8 19.2 20.0 95 0.5 N 28 37 15 20 1010.6 1010.1 0.6
02/12:00am 21.0 19.4 20.0 94 0.6 N 28 41 15 22 1010.9 1010.4 0.6
 
Date/Time
EDT
Temp
°C
App
Temp
°C
Dew
Point
°C
Rel
Hum
%
Delta-T
°C
Wind Press
QNH
hPa
Press
MSL
hPa
Rain since
9am
mm
Dir  Spd
km/h
Gust
km/h
Spd
kts
Gust
kts
01/11:30pm 21.1 20.2 19.9 93 0.8 NNW 24 39 13 21 1011.1 1010.7 0.6
01/11:00pm 21.0 20.2 20.0 94 0.6 NNW 24 37 13 20 1011.3 1010.9 0.6
01/10:30pm 20.5 20.5 19.7 95 0.5 NNW 19 28 10 15 1011.7 1011.3 0.6
01/10:00pm 20.8 19.5 19.8 94 0.6 N 26 35 14 19 1011.5 1011.1 0.6
01/09:30pm 20.3 19.5 19.3 94 0.6 N 22 32 12 17 1011.2 1010.8 0.6
01/09:00pm 20.4 19.2 19.2 93 0.8 N 24 33 13 18 1011.1 1010.7 0.6
01/08:30pm 20.6 18.7 19.4 93 0.8 N 28 41 15 22 1011.0 1010.5 0.6
01/08:00pm 20.8 19.6 20.0 95 0.5 N 26 37 14 20 1010.7 1010.2 0.6
01/07:30pm 21.5 19.9 20.1 92 0.9 NNE 28 37 15 20 1010.3 1009.8 0.6
01/07:00pm 21.9 18.8 20.5 92 0.9 NNE 37 50 20 27 1009.8 1009.3 0.6
01/06:30pm 22.2 22.0 20.5 90 1.1 NNE 22 33 12 18 1009.7 1009.2 0.4
01/06:27pm 22.2 22.0 20.5 90 1.1 N 22 33 12 18 1009.5 1009.0 0.4
01/06:00pm 22.7 20.0 19.3 81 2.2 N 32 43 17 23 1007.5 1007.0 0.0
01/05:30pm 22.8 20.4 20.3 86 1.6 NE 33 59 18 32 1007.2 1006.7 0.0
01/05:16pm 23.1 18.0 20.6 86 1.6 NE 48 69 26 37 1006.6 1006.1 0.0
01/05:12pm 23.1 15.9 20.6 86 1.6 NE 59 76 32 41 1006.5 1006.0 0.0
01/05:00pm 22.7 14.3 20.4 87 1.5 NE 65 74 35 40 1006.0 1005.5 0.0
01/04:47pm 22.7 15.0 20.4 87 1.5 NE 61 74 33 40 1005.9 1005.4 0.0
01/04:30pm 22.5 18.9 20.2 87 1.5 NE 39 65 21 35 1007.2 1006.7 0.0
01/04:28pm 22.5 20.0 20.2 87 1.5 NNE 33 59 18 32 1007.4 1006.9 0.0
01/04:24pm 22.3 20.7 20.0 87 1.5 NNE 28 46 15 25 1008.0 1007.5 0.0
01/04:00pm 22.7 21.4 19.9 84 1.8 N 26 39 14 21 1008.9 1008.4 0.0
01/03:30pm 24.3 22.3 20.0 77 2.8 NNE 30 43 16 23 1007.8 1007.3 0.0
01/03:00pm 24.2 22.4 20.3 79 2.5 NNE 30 43 16 23 1008.4 1007.9 0.0
01/02:30pm 23.7 21.1 20.0 80 2.4 NNE 33 48 18 26 1008.4 1007.9 0.0
01/02:08pm 23.9 21.6 20.2 80 2.4 NNE 32 50 17 27 1009.3 1008.8 0.0
01/02:00pm 23.3 20.1 20.2 83 2.0 NNE 37 50 20 27 1008.7 1008.2 0.0
01/01:30pm 24.5 21.5 20.6 79 2.6 NNE 37 54 20 29 1009.2 1008.7 0.0
01/01:18pm 24.2 20.7 20.5 80 2.4 NNE 39 57 21 31 1009.1 1008.6 0.0
01/01:00pm 23.2 18.7 19.8 81 2.2 NNE 43 59 23 32 1009.0 1008.5 0.0
01/12:31pm 24.2 19.6 19.7 76 2.9 NNE 43 61 23 33 1009.6 1009.1 0.0
01/12:30pm 24.3 19.8 19.8 76 2.9 NNE 43 57 23 31 1009.7 1009.2 0.0
01/12:00pm 24.0 20.1 19.5 76 2.9 NNE 39 59 21 32 1010.3 1009.8 0.0
01/11:42am 24.0 19.9 19.1 74 3.1 NNE 39 59 21 32 1010.5 1010.0 0.0
01/11:30am 24.1 20.1 19.4 75 3.0 NNE 39 54 21 29 1010.6 1010.1 0.0
01/11:20am 23.8 21.1 19.3 76 2.9 NNE 32 50 17 27 1010.7 1010.2 0.0
01/11:00am 23.7 21.0 19.6 78 2.6 NNE 33 46 18 25 1011.0 1010.5 0.0
01/10:30am 23.5 20.7 19.4 78 2.6 NNE 33 48 18 26 1011.3 1010.9 0.0
01/10:00am 23.3 21.1 19.5 79 2.4 NNE 30 41 16 22 1011.5 1011.1 0.0
01/09:30am 23.5 22.2 19.0 76 2.9 NNE 24 35 13 19 1011.6 1011.2 0.0
01/09:00am 23.4 22.4 18.9 76 2.9 N 22 32 12 17 1011.7 1011.3 0.4
01/08:30am 22.1 21.7 19.3 84 1.8 N 20 30 11 16 1011.7 1011.3 0.4
01/08:00am 21.2 21.6 19.1 88 1.3 NNW 15 26 8 14 1011.5 1011.1 0.4
01/07:30am 20.7 22.0 19.2 91 1.0 N 11 15 6 8 1011.4 1011.0 0.4
01/07:00am 20.2 20.0 18.5 90 1.1 N 17 22 9 12 1011.3 1010.9 0.4
01/06:30am 19.6 19.5 17.9 90 1.1 N 15 19 8 10 1010.9 1010.5 0.4
01/06:00am 19.1 19.7 17.8 92 0.8 NNW 11 17 6 9 1010.8 1010.4 0.4
01/05:30am 19.2 20.3 18.0 93 0.7 NNW 9 13 5 7 1011.0 1010.6 0.4
01/05:00am 18.8 20.1 17.5 92 0.8 WNW 7 13 4 7 1010.4 1010.0 0.4
01/04:30am 19.1 20.5 17.9 93 0.7 NNE 7 13 4 7 1010.2 1009.8 0.4
01/04:00am 19.0 20.1 18.0 94 0.6 NNE 9 13 5 7 1010.1 1009.7 0.4
01/03:30am 19.0 20.5 18.0 94 0.6 NNE 7 11 4 6 1010.5 1010.1 0.4
01/03:00am 19.1 20.2 18.1 94 0.6 WNW 9 15 5 8 1011.1 1010.7 0.4
01/02:30am 19.7 20.6 18.5 93 0.7 WNW 11 13 6 7 1011.1 1010.7 0.4
01/02:00am 20.5 22.0 19.0 91 0.9 N 9 13 5 7 1011.6 1011.2 0.4
01/01:30am 20.3 21.0 18.8 91 0.9 ENE 13 15 7 8 1011.7 1011.3 0.4
01/01:00am 20.3 21.8 18.8 91 0.9 E 9 13 5 7 1011.7 1011.3 0.4

Other Formats:

Comma delimited format used in spreadsheet applications
http://www.bom.gov.au/fwo/IDN60801/IDN60801.94599.axf

JavaScript Object Notation format (JSON) in row-major order
http://www.bom.gov.au/fwo/IDN60801/IDN60801.94599.json